Time;durP1;ratioP1;P1;durP2;ratioP2;P2;SDS_P1;SDS_P2;PMS_P1;PMS_P2;Temp;Humidity;BMP_temperature;BMP_pressure;BME280_temperature;BME280_humidity;BME280_pressure;Samples;Min_cycle;Max_cycle;Signal;HPM_P1;HPM_P2
2022/04/29 00:00:36;;;;;;;4.73;4.23;;;;;;;15.70;84.56;92710.44;5039187;28;20569;-73
2022/04/29 00:03:05;;;;;;;4.70;3.57;;;;;;;15.41;83.83;92713.06;5040498;28;20479;-73
2022/04/29 00:05:34;;;;;;;5.47;3.80;;;;;;;15.21;84.71;92693.91;5056487;28;20582;-73
2022/04/29 00:08:01;;;;;;;4.50;4.20;;;;;;;15.24;85.16;92696.25;5039266;28;20486;-73
2022/04/29 00:10:28;;;;;;;4.77;4.47;;;;;;;15.32;86.06;92694.06;5042965;28;20620;-73
2022/04/29 00:12:56;;;;;;;4.60;4.13;;;;;;;15.35;86.61;92681.16;5045504;28;20606;-72
2022/04/29 00:15:23;;;;;;;4.93;4.43;;;;;;;15.52;86.21;92698.81;5039029;28;20498;-72
2022/04/29 00:17:51;;;;;;;4.93;4.53;;;;;;;15.79;84.84;92692.94;5038579;28;20477;-73
2022/04/29 00:20:19;;;;;;;5.13;4.83;;;;;;;15.48;84.95;92688.88;5038547;28;20570;-73
2022/04/29 00:22:46;;;;;;;5.37;4.63;;;;;;;15.53;85.26;92700.47;5038587;28;20548;-73
2022/04/29 00:25:14;;;;;;;6.90;5.13;;;;;;;15.57;86.19;92690.91;5038432;28;20597;-73
2022/04/29 00:27:42;;;;;;;5.67;5.20;;;;;;;15.72;85.94;92693.31;5038578;28;20536;-73
2022/04/29 00:30:11;;;;;;;5.07;4.67;;;;;;;15.82;85.35;92690.22;5038484;28;20635;-73
2022/04/29 00:32:39;;;;;;;4.97;4.40;;;;;;;15.64;86.14;92700.63;5037895;28;20532;-72
2022/04/29 00:35:10;;;;;;;4.70;4.43;;;;;;;15.63;86.25;92698.16;5037558;28;20552;-72
2022/04/29 00:37:45;;;;;;;4.80;4.37;;;;;;;15.44;86.26;92675.50;5038238;28;20339;-72
2022/04/29 00:40:16;;;;;;;5.10;4.60;;;;;;;15.54;86.57;92697.00;5037147;28;20531;-73
2022/04/29 00:42:45;;;;;;;6.33;4.57;;;;;;;15.24;88.07;92691.16;5037887;28;20193;-73
2022/04/29 00:45:13;;;;;;;4.33;4.03;;;;;;;15.49;86.76;92687.97;5038818;28;20220;-73
2022/04/29 00:47:40;;;;;;;4.87;4.47;;;;;;;15.49;85.90;92693.06;5058468;28;20552;-73
2022/04/29 00:50:10;;;;;;;4.50;4.20;;;;;;;15.81;85.61;92688.59;5058493;28;20604;-73
2022/04/29 00:52:42;;;;;;;5.33;4.23;;;;;;;16.31;82.35;92693.06;5057819;28;20212;-73
2022/04/29 00:55:10;;;;;;;4.90;4.50;;;;;;;15.85;84.52;92683.19;5058256;28;20541;-73
2022/04/29 00:57:58;;;;;;;4.70;4.40;;;;;;;16.09;83.39;92683.41;5047489;28;20669;-72
2022/04/29 01:00:26;;;;;;;5.10;4.50;;;;;;;15.75;85.14;92677.88;5057502;27;20215;-73
2022/04/29 01:02:54;;;;;;;4.33;4.03;;;;;;;15.84;86.50;92670.56;5058077;28;20499;-73
2022/04/29 01:05:26;;;;;;;4.27;3.93;;;;;;;16.09;84.96;92679.13;5057624;28;20212;-73
2022/04/29 01:07:54;;;;;;;4.03;3.67;;;;;;;15.84;84.66;92675.66;5054893;28;20555;-73
2022/04/29 01:10:22;;;;;;;4.13;3.73;;;;;;;15.77;83.99;92664.22;5036631;28;20637;-73
2022/04/29 01:12:51;;;;;;;3.53;3.23;;;;;;;16.07;82.57;92654.66;5037148;28;20579;-73
2022/04/29 01:15:19;;;;;;;3.70;3.50;;;;;;;16.45;80.98;92682.84;5037744;28;20598;-73
2022/04/29 01:17:48;;;;;;;5.30;3.80;;;;;;;16.66;79.87;92693.41;5036968;28;20212;-73
2022/04/29 01:20:17;;;;;;;3.47;3.27;;;;;;;16.04;81.99;92670.16;5037550;28;20281;-74
2022/04/29 01:22:46;;;;;;;4.27;3.80;;;;;;;16.12;82.79;92680.66;5037458;28;20193;-73
2022/04/29 01:25:14;;;;;;;3.83;3.53;;;;;;;15.91;82.97;92676.91;5037011;28;20609;-73
2022/04/29 01:27:41;;;;;;;4.03;3.73;;;;;;;15.69;83.10;92668.06;5037588;28;20475;-73
2022/04/29 01:30:12;;;;;;;5.63;3.80;;;;;;;15.93;83.21;92670.00;5037383;28;20561;-74
2022/04/29 01:32:40;;;;;;;3.83;3.53;;;;;;;15.92;83.60;92669.19;5036783;28;20511;-73
2022/04/29 01:35:10;;;;;;;3.97;3.03;;;;;;;15.89;83.76;92648.16;5037068;28;20381;-73
2022/04/29 01:37:37;;;;;;;4.00;3.70;;;;;;;15.73;84.27;92664.41;5037181;28;20504;-73
2022/04/29 01:40:09;;;;;;;4.63;3.37;;;;;;;16.06;83.70;92668.31;5036562;28;20526;-73
2022/04/29 01:42:36;;;;;;;4.20;3.20;;;;;;;15.74;83.87;92652.47;5037105;28;20253;-73
2022/04/29 01:45:04;;;;;;;3.50;3.30;;;;;;;15.87;83.50;92653.38;5036521;28;20603;-73
2022/04/29 01:47:31;;;;;;;3.03;2.83;;;;;;;15.79;83.39;92649.63;5036517;28;20493;-73
2022/04/29 01:49:59;;;;;;;4.30;3.33;;;;;;;15.84;83.72;92661.19;5036814;28;20229;-73
2022/04/29 01:52:26;;;;;;;3.47;3.17;;;;;;;15.66;84.08;92658.03;5049548;28;20604;-74
2022/04/29 01:54:54;;;;;;;4.00;3.70;;;;;;;15.69;84.15;92655.31;5056613;28;20562;-73
2022/04/29 01:57:22;;;;;;;4.70;4.30;;;;;;;15.79;84.12;92637.72;5056962;28;20594;-73
2022/04/29 01:59:49;;;;;;;5.33;4.93;;;;;;;15.62;84.43;92656.59;5050886;28;20197;-74
2022/04/29 02:02:17;;;;;;;5.03;4.70;;;;;;;15.46;84.81;92655.88;5055478;28;20196;-73
2022/04/29 02:04:44;;;;;;;5.70;5.20;;;;;;;15.32;85.99;92656.69;5041955;28;20201;-73
2022/04/29 02:07:12;;;;;;;8.67;5.80;;;;;;;15.46;85.79;92660.13;5036266;28;20606;-73
2022/04/29 02:09:39;;;;;;;7.03;6.37;;;;;;;15.43;85.76;92660.34;5047897;28;20247;-73
2022/04/29 02:12:07;;;;;;;6.03;5.43;;;;;;;15.61;86.32;92656.69;5036972;28;20189;-73
2022/04/29 02:14:37;;;;;;;5.90;5.40;;;;;;;15.80;85.79;92648.72;5036533;28;20542;-74
2022/04/29 02:17:06;;;;;;;8.77;5.00;;;;;;;15.66;85.93;92652.94;5036957;28;20486;-73
2022/04/29 02:19:52;;;;;;;5.00;4.53;;;;;;;15.59;85.81;92656.78;5036393;28;20509;-74
2022/04/29 02:22:19;;;;;;;8.47;5.63;;;;;;;15.57;85.69;92660.34;5037001;28;20522;-73
2022/04/29 02:24:46;;;;;;;5.97;5.10;;;;;;;15.56;86.12;92654.41;5036793;28;20609;-74
2022/04/29 02:27:13;;;;;;;12.20;6.30;;;;;;;15.67;85.28;92656.31;5036399;28;20558;-74
2022/04/29 02:29:42;;;;;;;9.23;6.60;;;;;;;15.71;84.75;92650.94;5035901;28;20617;-74
2022/04/29 02:32:09;;;;;;;5.60;5.20;;;;;;;15.52;85.47;92659.81;5036144;28;20562;-74
2022/04/29 02:34:37;;;;;;;5.77;5.27;;;;;;;15.73;84.98;92656.75;5035529;28;20508;-75
2022/04/29 02:37:05;;;;;;;6.33;5.53;;;;;;;16.16;83.01;92669.38;5036018;28;20616;-74
2022/04/29 02:39:32;;;;;;;5.73;5.23;;;;;;;16.17;82.94;92669.25;5036197;28;20558;-74
2022/04/29 02:41:59;;;;;;;5.77;5.37;;;;;;;16.19;82.36;92674.28;5035829;28;20662;-74
2022/04/29 02:44:26;;;;;;;5.80;5.43;;;;;;;16.25;81.88;92673.88;5035783;28;20482;-74
2022/04/29 02:47:10;;;;;;;5.53;5.07;;;;;;;16.48;81.13;92680.06;5035859;28;20262;-74
2022/04/29 02:49:38;;;;;;;4.90;4.43;;;;;;;16.27;81.58;92668.69;5035792;28;20546;-74
2022/04/29 02:52:07;;;;;;;6.67;5.70;;;;;;;16.38;81.62;92672.22;5035473;28;20213;-74
2022/04/29 02:54:34;;;;;;;5.43;5.03;;;;;;;16.20;81.56;92670.00;5035422;28;20488;-74
2022/04/29 02:57:01;;;;;;;5.67;5.20;;;;;;;16.21;81.46;92680.09;5053867;28;20589;-74
2022/04/29 02:59:28;;;;;;;6.20;5.63;;;;;;;16.18;81.55;92686.19;5055360;28;20259;-74
2022/04/29 03:01:58;;;;;;;4.77;4.30;;;;;;;16.23;81.46;92691.00;5054811;28;20197;-74
2022/04/29 03:04:25;;;;;;;5.70;5.30;;;;;;;15.87;82.31;92695.84;5055151;28;20613;-74
2022/04/29 03:06:53;;;;;;;5.97;5.47;;;;;;;15.90;82.24;92688.00;5052765;28;20553;-74
2022/04/29 03:09:20;;;;;;;4.83;4.50;;;;;;;15.83;82.36;92695.22;5035391;28;20190;-74
2022/04/29 03:11:48;;;;;;;4.90;4.60;;;;;;;15.95;81.93;92693.63;5035299;28;20558;-74
2022/04/29 03:14:15;;;;;;;4.70;4.30;;;;;;;15.87;81.80;92690.75;5036015;28;20558;-74
2022/04/29 03:16:43;;;;;;;5.87;4.33;;;;;;;15.97;81.57;92702.84;5035463;28;20612;-74
2022/04/29 03:19:12;;;;;;;4.47;4.17;;;;;;;16.17;81.11;92711.78;5035372;28;20558;-74
2022/04/29 03:21:40;;;;;;;5.40;5.00;;;;;;;15.95;81.17;92708.94;5035506;28;20489;-74
2022/04/29 03:24:07;;;;;;;4.00;3.80;;;;;;;15.98;80.63;92713.84;5035533;28;20573;-74
2022/04/29 03:26:36;;;;;;;5.27;4.77;;;;;;;15.98;80.94;92712.13;5035278;28;20513;-75
2022/04/29 03:29:03;;;;;;;4.57;4.17;;;;;;;15.76;81.76;92693.97;5035593;28;20205;-74
2022/04/29 03:31:30;;;;;;;5.53;5.03;;;;;;;15.81;81.74;92721.72;5035178;28;20236;-75
2022/04/29 03:33:58;;;;;;;11.67;7.93;;;;;;;15.91;80.31;92712.59;5042392;28;20205;-75
2022/04/29 03:36:26;;;;;;;16.67;8.47;;;;;;;16.23;79.17;92721.59;5038158;28;20617;-75
2022/04/29 03:38:54;;;;;;;35.73;14.17;;;;;;;16.05;79.63;92720.22;5035299;28;20555;-75
2022/04/29 03:41:21;;;;;;;23.97;11.93;;;;;;;16.04;78.54;92714.28;5035199;28;20605;-75
2022/04/29 03:43:51;;;;;;;8.70;6.07;;;;;;;15.73;80.50;92715.34;5035459;28;20590;-75
2022/04/29 03:46:18;;;;;;;5.53;5.13;;;;;;;15.43;82.13;92714.63;5035401;28;20625;-75
2022/04/29 03:51:31;;;;;;;4.97;4.57;;;;;;;15.69;81.62;92707.97;5034793;28;20479;-75
2022/04/29 03:53:58;;;;;;;6.47;4.77;;;;;;;15.33;83.35;92703.31;5035262;28;20479;-75
2022/04/29 03:56:25;;;;;;;4.67;4.37;;;;;;;15.48;82.20;92694.78;5034872;28;20457;-75
2022/04/29 03:58:55;;;;;;;5.87;5.37;;;;;;;16.12;80.15;92701.88;5034801;28;20543;-75
2022/04/29 04:01:22;;;;;;;8.17;6.20;;;;;;;15.92;80.18;92709.13;5035425;28;20506;-75
2022/04/29 04:03:49;;;;;;;7.73;6.80;;;;;;;15.69;80.73;92670.59;5045178;28;20564;-75
2022/04/29 04:09:02;;;;;;;6.90;6.30;;;;;;;16.17;79.56;92704.94;5039024;28;20597;-75
2022/04/29 04:11:29;;;;;;;7.03;6.00;;;;;;;15.97;79.83;92710.47;5050571;28;20623;-75
2022/04/29 04:13:57;;;;;;;8.73;6.37;;;;;;;15.99;79.90;92715.50;5039220;28;20564;-75
2022/04/29 04:16:24;;;;;;;6.87;6.37;;;;;;;15.87;79.60;92689.03;5039271;28;20465;-75
2022/04/29 04:18:52;;;;;;;7.27;6.57;;;;;;;15.81;80.22;92714.88;5038036;28;20284;-75
2022/04/29 04:21:19;;;;;;;7.37;6.77;;;;;;;15.55;81.16;92708.81;5038722;28;20616;-75
2022/04/29 04:23:46;;;;;;;6.87;6.23;;;;;;;15.50;81.82;92708.22;5038274;28;20593;-74
2022/04/29 04:26:15;;;;;;;6.00;5.50;;;;;;;15.72;81.32;92707.78;5039006;28;20505;-76
2022/04/29 04:28:42;;;;;;;6.77;6.03;;;;;;;15.07;81.26;92627.72;5041112;28;20591;-76
2022/04/29 04:31:10;;;;;;;6.63;5.97;;;;;;;15.77;80.97;92711.69;5043043;28;20598;-74
2022/04/29 04:33:37;;;;;;;5.63;5.20;;;;;;;15.87;80.32;92718.78;5038097;28;20551;-77
2022/04/29 04:36:05;;;;;;;5.00;4.43;;;;;;;15.68;79.23;92671.50;5037617;28;20669;-75
2022/04/29 04:38:32;;;;;;;8.13;7.33;;;;;;;16.00;78.84;92722.22;5043205;28;20192;-75
2022/04/29 04:41:00;;;;;;;5.33;4.93;;;;;;;15.98;77.52;92727.41;5040550;28;20263;-75
2022/04/29 04:43:29;;;;;;;6.13;5.63;;;;;;;16.15;76.51;92723.81;5039879;28;20658;-75
2022/04/29 04:45:56;;;;;;;5.60;5.13;;;;;;;15.84;76.36;92719.78;5044832;28;20496;-75
2022/04/29 04:48:23;;;;;;;5.37;5.07;;;;;;;15.90;76.67;92704.13;5048759;28;20558;-73
2022/04/29 04:50:51;;;;;;;6.30;5.70;;;;;;;16.13;76.44;92723.91;5039953;28;20707;-75
2022/04/29 04:53:18;;;;;;;9.30;7.03;;;;;;;15.97;77.43;92720.69;5039224;28;20734;-74
2022/04/29 04:55:45;;;;;;;10.60;6.23;;;;;;;16.15;76.26;92734.84;5039942;28;21067;-74
2022/04/29 04:58:13;;;;;;;6.97;6.47;;;;;;;16.37;76.55;92736.03;5041840;28;20581;-74
2022/04/29 05:00:43;;;;;;;8.40;6.30;;;;;;;16.72;75.52;92744.03;5036418;28;20212;-75
2022/04/29 05:03:11;;;;;;;7.33;6.33;;;;;;;16.43;75.35;92728.81;5041739;28;20675;-74
2022/04/29 05:05:38;;;;;;;6.67;6.10;;;;;;;16.65;75.30;92746.16;5042644;28;20648;-75
2022/04/29 05:08:06;;;;;;;7.70;6.97;;;;;;;16.80;74.54;92744.34;5042641;28;20610;-75
2022/04/29 05:10:33;;;;;;;6.77;6.17;;;;;;;16.55;73.27;92719.59;5044192;28;20481;-75
2022/04/29 05:13:00;;;;;;;8.03;7.17;;;;;;;16.72;73.86;92742.31;5041028;28;20233;-75
2022/04/29 05:15:28;;;;;;;7.23;6.63;;;;;;;16.90;74.03;92743.66;5039054;28;20220;-73
2022/04/29 05:17:56;;;;;;;7.53;6.93;;;;;;;17.08;74.20;92746.75;5041923;28;20597;-73
2022/04/29 05:20:23;;;;;;;10.27;8.47;;;;;;;16.91;73.99;92744.47;5042405;28;20581;-73
2022/04/29 05:22:51;;;;;;;9.10;7.60;;;;;;;17.01;73.32;92743.00;5040212;28;20548;-73
2022/04/29 05:25:18;;;;;;;7.57;6.93;;;;;;;16.96;73.45;92739.88;5039493;28;20541;-73
2022/04/29 05:27:45;;;;;;;7.53;6.83;;;;;;;16.91;73.52;92721.50;5039198;28;20558;-73
2022/04/29 05:30:12;;;;;;;9.73;7.77;;;;;;;16.77;73.65;92709.66;5037001;28;20609;-73
2022/04/29 05:32:40;;;;;;;7.50;6.90;;;;;;;16.84;72.85;92743.25;5039453;28;20491;-76
2022/04/29 05:35:10;;;;;;;6.80;6.20;;;;;;;17.05;72.85;92748.69;5038837;28;20485;-73
2022/04/29 05:37:40;;;;;;;6.60;6.00;;;;;;;16.90;72.58;92746.22;5039520;28;20237;-73
2022/04/29 05:42:54;;;;;;;7.80;7.20;;;;;;;17.08;73.15;92738.28;5045515;28;20615;-73
2022/04/29 05:45:21;;;;;;;6.63;6.03;;;;;;;17.08;73.17;92764.63;5038915;28;20497;-73
2022/04/29 05:47:48;;;;;;;6.10;5.70;;;;;;;17.11;72.99;92758.50;5040643;28;20581;-74
2022/04/29 05:50:17;;;;;;;9.60;8.67;;;;;;;17.51;72.63;92761.81;5038779;28;20649;-74
2022/04/29 05:52:50;;;;;;;6.68;6.07;;;;;;;17.70;71.33;92773.25;5039631;28;20261;-74
2022/04/29 05:55:18;;;;;;;6.17;5.73;;;;;;;17.29;71.09;92758.13;5041124;28;20192;-74
2022/04/29 05:57:45;;;;;;;6.07;5.57;;;;;;;17.24;70.25;92770.34;5040159;28;20585;-74
2022/04/29 06:00:13;;;;;;;6.00;5.50;;;;;;;17.29;70.49;92755.59;5036730;28;20452;-74
2022/04/29 06:02:40;;;;;;;6.43;5.80;;;;;;;17.20;70.69;92765.56;5038309;28;20547;-73
2022/04/29 06:05:09;;;;;;;5.82;5.32;;;;;;;17.17;70.75;92760.66;5043065;28;20558;-74
2022/04/29 06:07:38;;;;;;;8.93;7.13;;;;;;;17.22;70.67;92762.00;5038528;28;20223;-75
2022/04/29 06:10:07;;;;;;;6.80;5.37;;;;;;;17.19;71.69;92741.75;5035979;28;20656;-73
2022/04/29 06:12:38;;;;;;;8.60;7.40;;;;;;;17.44;70.76;92745.25;5041368;28;20482;-75
2022/04/29 06:15:07;;;;;;;13.63;10.00;;;;;;;17.60;71.96;92756.94;5038158;28;20498;-76
2022/04/29 06:17:34;;;;;;;7.50;6.90;;;;;;;17.73;71.67;92756.94;5042882;28;20265;-76
2022/04/29 06:20:04;;;;;;;7.57;6.65;;;;;;;18.12;68.53;92761.88;5037339;28;20577;-75
2022/04/29 06:22:31;;;;;;;6.88;6.38;;;;;;;18.07;68.43;92769.03;5034775;28;20483;-75
2022/04/29 06:24:59;;;;;;;6.70;6.10;;;;;;;18.30;68.62;92757.22;5035075;28;20588;-75
2022/04/29 06:27:27;;;;;;;9.43;6.75;;;;;;;18.07;68.16;92734.97;5037135;28;20570;-74
2022/04/29 06:29:54;;;;;;;8.95;7.05;;;;;;;18.17;67.08;92756.44;5035990;28;20577;-75
2022/04/29 06:32:21;;;;;;;8.07;7.35;;;;;;;17.89;66.70;92760.06;5037630;28;20493;-76
2022/04/29 06:34:49;;;;;;;9.02;6.60;;;;;;;17.60;67.16;92730.56;5033251;28;20221;-75
2022/04/29 06:37:16;;;;;;;9.60;6.50;;;;;;;17.79;67.70;92748.84;5038042;28;20201;-77
2022/04/29 06:39:43;;;;;;;6.43;5.43;;;;;;;17.76;66.84;92772.03;5033608;28;20572;-77
2022/04/29 06:42:12;;;;;;;6.55;6.05;;;;;;;17.92;66.79;92767.50;5035931;28;20601;-76
2022/04/29 06:44:39;;;;;;;9.20;6.30;;;;;;;17.90;67.73;92760.88;5036588;28;20620;-75
2022/04/29 06:47:07;;;;;;;6.65;5.82;;;;;;;17.98;66.51;92769.66;5041801;28;20596;-74
2022/04/29 06:49:34;;;;;;;9.48;6.57;;;;;;;18.26;66.38;92768.56;5040789;28;20447;-75
2022/04/29 06:52:02;;;;;;;7.63;6.93;;;;;;;18.33;66.44;92769.78;5042363;28;20669;-76
2022/04/29 06:54:29;;;;;;;7.70;6.97;;;;;;;18.33;65.79;92756.16;5038087;28;20557;-75
2022/04/29 06:56:56;;;;;;;8.27;6.32;;;;;;;18.36;65.71;92767.03;5038305;28;20572;-76
2022/04/29 06:59:26;;;;;;;8.73;8.02;;;;;;;18.51;65.33;92765.13;5036971;28;20249;-74
2022/04/29 07:01:53;;;;;;;9.15;7.15;;;;;;;18.46;65.83;92772.31;5037789;28;20582;-77
2022/04/29 07:04:21;;;;;;;7.70;6.75;;;;;;;18.36;65.76;92773.88;5043846;28;20294;-76
2022/04/29 07:06:49;;;;;;;7.03;6.53;;;;;;;18.30;65.21;92769.19;5037897;28;20197;-75
2022/04/29 07:09:16;;;;;;;7.95;7.20;;;;;;;18.31;65.60;92779.28;5035850;28;20209;-75
2022/04/29 07:11:43;;;;;;;7.07;6.53;;;;;;;18.48;64.70;92783.22;5037810;28;20553;-76
2022/04/29 07:14:12;;;;;;;7.72;6.97;;;;;;;18.34;64.33;92789.31;5037137;28;20581;-75
2022/04/29 07:16:41;;;;;;;5.80;5.30;;;;;;;18.50;64.27;92779.66;5037335;28;20575;-76
2022/04/29 07:19:08;;;;;;;6.18;5.68;;;;;;;18.29;64.97;92776.03;5038740;28;20581;-77
2022/04/29 07:21:36;;;;;;;5.85;5.05;;;;;;;18.23;64.09;92782.41;5038653;28;20470;-77
2022/04/29 07:24:04;;;;;;;5.07;4.72;;;;;;;18.28;64.75;92750.56;5036850;28;20285;-76
2022/04/29 07:26:31;;;;;;;5.13;4.65;;;;;;;18.62;64.63;92778.81;5035693;28;20593;-77
2022/04/29 07:28:59;;;;;;;4.93;4.63;;;;;;;18.20;63.59;92711.00;5036331;28;20480;-77
2022/04/29 07:31:26;;;;;;;4.68;4.35;;;;;;;18.42;63.08;92774.25;5038018;28;20636;-78
2022/04/29 07:33:55;;;;;;;6.20;5.68;;;;;;;18.83;62.64;92794.38;5037382;28;20476;-77
2022/04/29 07:42:03;;;;;;;4.95;4.60;;;;;;;18.52;62.24;92792.34;5038581;28;20635;-76
2022/04/29 07:44:30;;;;;;;4.47;4.18;;;;;;;18.34;61.77;92779.09;5038660;28;20508;-77
2022/04/29 07:46:58;;;;;;;5.68;5.28;;;;;;;18.41;61.46;92798.22;5043238;28;20232;-76
2022/04/29 07:49:27;;;;;;;5.05;4.65;;;;;;;18.60;62.02;92795.19;5043194;28;20609;-76
2022/04/29 07:51:55;;;;;;;9.52;8.43;;;;;;;18.28;61.68;92791.47;5049446;28;20240;-77
2022/04/29 07:54:25;;;;;;;9.25;8.20;;;;;;;18.27;62.28;92792.41;5040387;28;20601;-77
2022/04/29 07:56:52;;;;;;;5.35;4.95;;;;;;;18.14;63.31;92787.34;5041200;28;20468;-77
2022/04/29 07:59:20;;;;;;;4.78;4.28;;;;;;;18.10;63.34;92780.78;5038187;28;20475;-77
2022/04/29 08:01:47;;;;;;;4.60;4.30;;;;;;;17.92;57.90;92821.19;5047608;28;20497;-77
2022/04/29 08:04:23;;;;;;;4.18;3.88;;;;;;;18.15;55.29;92840.91;5052199;28;20476;-76
2022/04/29 08:06:55;;;;;;;5.55;5.15;;;;;;;18.06;56.42;92826.22;5042078;28;20569;-78
2022/04/29 08:09:23;;;;;;;4.70;4.28;;;;;;;17.79;57.42;92822.97;5040549;28;20564;-78
2022/04/29 08:11:50;;;;;;;4.10;3.80;;;;;;;17.50;56.45;92822.31;5040956;28;20608;-78
2022/04/29 08:14:18;;;;;;;4.72;4.00;;;;;;;17.56;57.13;92815.97;5040471;28;20555;-76
2022/04/29 08:16:45;;;;;;;4.68;4.38;;;;;;;17.30;57.13;92769.13;5044906;28;20553;-77
2022/04/29 08:19:13;;;;;;;6.30;5.45;;;;;;;17.74;57.52;92819.91;5044581;28;20487;-76
2022/04/29 08:21:40;;;;;;;8.30;7.20;;;;;;;17.79;59.04;92808.44;5041745;28;20634;-78
2022/04/29 08:24:09;;;;;;;21.52;10.90;;;;;;;18.06;58.99;92808.31;5038682;28;20490;-79
2022/04/29 08:26:37;;;;;;;12.18;6.28;;;;;;;17.96;58.24;92814.16;5044101;28;20559;-77
2022/04/29 08:29:04;;;;;;;7.57;5.85;;;;;;;17.89;59.36;92788.19;5037906;28;20482;-77
2022/04/29 08:31:31;;;;;;;7.93;5.85;;;;;;;17.85;59.26;92761.22;5038325;28;20572;-78
2022/04/29 08:33:58;;;;;;;19.77;12.43;;;;;;;18.09;60.17;92774.84;5048129;28;20225;-75
2022/04/29 08:36:25;;;;;;;7.30;6.25;;;;;;;18.37;59.63;92799.34;5057980;28;20508;-76
2022/04/29 08:38:53;;;;;;;9.27;8.43;;;;;;;18.28;58.87;92753.94;5058051;28;20699;-77
2022/04/29 08:41:21;;;;;;;7.13;6.35;;;;;;;18.97;58.40;92801.09;5058258;28;20633;-75
2022/04/29 08:43:49;;;;;;;19.17;13.75;;;;;;;18.39;59.00;92720.75;5057253;28;20654;-76
2022/04/29 08:46:21;;;;;;;14.43;11.20;;;;;;;18.97;58.37;92804.47;5058272;28;20278;-75
2022/04/29 08:48:50;;;;;;;5.32;4.97;;;;;;;18.95;57.87;92774.78;5057297;28;20523;-75
2022/04/29 08:51:17;;;;;;;6.93;6.22;;;;;;;18.78;57.60;92781.09;5056096;28;20569;-78
2022/04/29 08:53:44;;;;;;;9.90;7.72;;;;;;;18.85;58.17;92777.19;5057997;28;20197;-74
2022/04/29 08:58:58;;;;;;;10.63;7.97;;;;;;;19.37;56.77;92810.09;5057781;28;20261;-75
2022/04/29 09:01:26;;;;;;;9.23;8.32;;;;;;;19.07;56.13;92794.38;5057351;28;20596;-75
2022/04/29 09:03:54;;;;;;;19.73;11.40;;;;;;;19.16;56.34;92801.38;5057534;28;20550;-75
2022/04/29 09:06:22;;;;;;;12.30;9.50;;;;;;;18.80;58.45;92717.81;5047595;28;20229;-75
2022/04/29 09:08:50;;;;;;;7.22;6.53;;;;;;;19.23;57.67;92768.47;5037563;28;20606;-75
2022/04/29 09:11:23;;;;;;;23.63;12.68;;;;;;;19.53;57.14;92791.88;5037886;28;20581;-77
2022/04/29 09:13:51;;;;;;;5.95;5.55;;;;;;;19.35;56.87;92799.13;5036842;28;20482;-76
2022/04/29 09:16:19;;;;;;;11.23;8.05;;;;;;;19.67;56.58;92806.19;5037154;28;20457;-74
2022/04/29 09:18:51;;;;;;;14.32;8.43;;;;;;;19.56;56.98;92771.13;5036806;28;20201;-74
2022/04/29 09:21:20;;;;;;;8.27;7.57;;;;;;;19.69;56.58;92799.22;5037408;28;20492;-74
2022/04/29 09:23:55;;;;;;;6.88;6.30;;;;;;;19.76;56.91;92779.91;5037076;28;20561;-75
2022/04/29 09:26:24;;;;;;;5.93;5.60;;;;;;;19.57;56.27;92797.56;5036194;28;20518;-74
2022/04/29 09:28:55;;;;;;;8.88;6.18;;;;;;;19.44;56.63;92787.38;5034981;28;20589;-77
2022/04/29 09:31:23;;;;;;;18.13;13.73;;;;;;;19.67;56.45;92794.19;5037179;28;20490;-76
2022/04/29 09:33:55;;;;;;;5.95;5.38;;;;;;;19.84;55.32;92792.94;5036625;28;20508;-78
2022/04/29 09:36:24;;;;;;;7.45;6.78;;;;;;;19.33;55.97;92798.41;5036173;28;20520;-74
2022/04/29 09:41:41;;;;;;;6.32;5.78;;;;;;;18.67;57.48;92783.59;5036773;28;20474;-76
2022/04/29 09:44:26;;;;;;;6.95;6.22;;;;;;;18.71;57.70;92777.34;5036075;28;20493;-76
2022/04/29 09:46:55;;;;;;;5.75;5.22;;;;;;;18.61;57.92;92761.00;5047831;28;20240;-76
2022/04/29 09:49:27;;;;;;;6.43;5.90;;;;;;;19.01;58.75;92769.22;5056496;28;20540;-77
2022/04/29 09:51:54;;;;;;;6.43;6.00;;;;;;;19.04;57.67;92781.81;5054958;28;20639;-77
2022/04/29 09:54:24;;;;;;;6.28;5.78;;;;;;;19.36;57.46;92771.75;5047049;28;20569;-76
2022/04/29 09:57:09;;;;;;;4.80;4.40;;;;;;;19.56;57.57;92765.16;5051335;28;20227;-76
2022/04/29 09:59:38;;;;;;;7.60;7.05;;;;;;;19.53;57.84;92750.03;5042012;28;20201;-75
2022/04/29 10:02:07;;;;;;;5.25;4.57;;;;;;;19.64;56.72;92773.13;5036057;28;20481;-76
2022/04/29 10:04:40;;;;;;;5.10;4.80;;;;;;;19.99;56.03;92770.47;5037341;28;20522;-75
2022/04/29 10:07:09;;;;;;;5.50;5.13;;;;;;;19.99;57.28;92758.47;5035821;28;20566;-75
2022/04/29 10:09:38;;;;;;;6.88;5.90;;;;;;;20.14;55.87;92782.09;5036698;28;20558;-74
2022/04/29 10:12:10;;;;;;;5.53;5.20;;;;;;;20.09;56.32;92748.28;5053177;28;20685;-72
2022/04/29 10:14:40;;;;;;;5.95;5.25;;;;;;;20.40;55.73;92765.53;5046414;28;20714;-74
2022/04/29 10:22:49;;;;;;;7.00;5.03;;;;;;;20.32;54.23;92774.78;5037729;28;20501;-75
2022/04/29 10:25:18;;;;;;;4.95;4.63;;;;;;;20.44;54.30;92777.22;5039699;28;20552;-75
2022/04/29 10:27:45;;;;;;;4.95;4.55;;;;;;;20.39;52.89;92787.03;5036208;28;20326;-75
2022/04/29 10:30:13;;;;;;;6.13;5.53;;;;;;;20.57;53.50;92777.88;5047089;28;20649;-75
2022/04/29 10:33:07;;;;;;;5.75;5.35;;;;;;;21.18;51.54;92785.91;5043820;28;20589;-76
2022/04/29 10:35:49;;;;;;;5.18;4.78;;;;;;;20.98;51.13;92794.34;5046317;28;20563;-73
2022/04/29 10:38:19;;;;;;;4.70;4.32;;;;;;;21.12;52.27;92780.41;5033728;28;20612;-74
2022/04/29 10:40:49;;;;;;;5.05;4.63;;;;;;;21.08;52.03;92764.38;5055395;28;20557;-75
2022/04/29 10:43:18;;;;;;;5.22;4.80;;;;;;;20.75;50.88;92737.09;5055536;28;20573;-75
2022/04/29 10:46:17;;;;;;;6.03;5.18;;;;;;;21.51;51.05;92769.47;5055797;28;20489;-75
2022/04/29 10:48:46;;;;;;;5.45;4.95;;;;;;;20.99;51.44;92760.81;5055923;28;20660;-75
2022/04/29 10:51:18;;;;;;;7.20;5.05;;;;;;;21.16;52.01;92761.25;5050492;28;20270;-75
2022/04/29 10:53:47;;;;;;;4.32;4.03;;;;;;;20.96;51.19;92773.06;5050702;28;20573;-75
2022/04/29 10:56:37;;;;;;;5.65;5.15;;;;;;;21.26;52.67;92757.81;5044357;28;20211;-75
2022/04/29 10:59:24;;;;;;;5.90;5.40;;;;;;;21.45;51.36;92768.22;5050101;28;20200;-75
2022/04/29 11:02:08;;;;;;;5.28;4.82;;;;;;;21.31;51.33;92758.25;5055840;28;20589;-75
2022/04/29 11:04:49;;;;;;;5.47;5.07;;;;;;;20.87;51.33;92768.69;5048859;28;20671;-73
2022/04/29 11:07:45;;;;;;;5.13;4.72;;;;;;;20.88;52.27;92758.31;5034904;28;20585;-74
2022/04/29 11:10:15;;;;;;;5.70;5.30;;;;;;;20.75;53.03;92759.38;5035346;28;20540;-78
2022/04/29 11:12:55;;;;;;;6.15;5.65;;;;;;;20.53;53.61;92739.72;5045539;28;20221;-74
2022/04/29 11:15:25;;;;;;;5.78;5.15;;;;;;;20.55;53.25;92754.09;5034719;28;20604;-75
2022/04/29 11:18:02;;;;;;;5.55;5.15;;;;;;;20.24;53.50;92752.22;5036570;28;20715;-77
2022/04/29 11:20:32;;;;;;;5.32;4.93;;;;;;;20.32;53.03;92741.41;5042648;28;20579;-75
2022/04/29 11:25:52;;;;;;;6.13;5.63;;;;;;;19.66;53.05;92679.00;5035673;28;20261;-75
2022/04/29 11:28:21;;;;;;;5.82;5.32;;;;;;;19.51;54.22;92710.88;5054906;28;20573;-75
2022/04/29 11:30:48;;;;;;;5.72;5.18;;;;;;;19.47;55.15;92735.94;5055893;28;20622;-75
2022/04/29 11:33:21;;;;;;;4.88;4.57;;;;;;;19.50;55.08;92742.56;5054768;28;20490;-76
2022/04/29 11:35:57;;;;;;;6.40;4.93;;;;;;;19.50;55.20;92715.19;5054830;28;20655;-76
2022/04/29 11:38:25;;;;;;;5.28;4.88;;;;;;;19.34;56.42;92730.88;5039221;28;20485;-76
2022/04/29 11:40:52;;;;;;;6.68;5.90;;;;;;;19.34;57.59;92714.69;5034013;28;20582;-76
2022/04/29 11:43:23;;;;;;;6.75;6.05;;;;;;;19.70;56.02;92723.94;5034636;28;20458;-75
2022/04/29 11:46:02;;;;;;;6.53;5.93;;;;;;;19.89;56.69;92731.06;5034916;28;20205;-76
2022/04/29 11:48:29;;;;;;;5.43;5.10;;;;;;;19.40;56.31;92716.78;5035249;28;20633;-76
2022/04/29 11:50:59;;;;;;;5.25;4.82;;;;;;;19.48;56.14;92729.06;5035121;28;20607;-75
2022/04/29 11:53:26;;;;;;;7.95;7.15;;;;;;;19.14;57.27;92718.72;5037264;28;20572;-76
2022/04/29 11:55:53;;;;;;;7.75;5.97;;;;;;;19.07;57.66;92712.41;5034740;28;20232;-76
2022/04/29 11:58:21;;;;;;;7.63;5.20;;;;;;;18.85;57.15;92714.91;5034073;28;20189;-75
2022/04/29 12:00:54;;;;;;;6.90;5.03;;;;;;;18.56;56.63;92722.13;5033998;28;20209;-76
2022/04/29 12:03:22;;;;;;;7.05;5.88;;;;;;;18.23;58.34;92703.13;5037445;28;20573;-76
2022/04/29 12:05:50;;;;;;;5.80;5.03;;;;;;;18.26;57.92;92688.47;5037887;28;20841;-76
2022/04/29 12:08:19;;;;;;;5.00;4.60;;;;;;;18.72;57.33;92714.16;5035068;28;20655;-77